createdAt,value
2023-04-02T00:00:39.093Z,10.28
2023-04-02T00:01:40.478Z,10.27
2023-04-02T00:02:37.097Z,10.27
2023-04-02T00:03:36.631Z,10.28
2023-04-02T00:04:37.260Z,10.27
2023-04-02T00:05:37.428Z,10.26
2023-04-02T00:06:37.276Z,10.28
2023-04-02T00:07:36.628Z,10.28
2023-04-02T00:08:37.056Z,10.27
2023-04-02T00:09:36.720Z,10.23
2023-04-02T00:10:37.398Z,10.22
2023-04-02T00:11:37.118Z,10.21
2023-04-02T00:12:36.945Z,10.21
2023-04-02T00:13:37.108Z,10.21
2023-04-02T00:14:36.790Z,10.18
2023-04-02T00:15:37.379Z,10.17
2023-04-02T00:16:37.146Z,10.16
2023-04-02T00:17:36.861Z,10.14
2023-04-02T00:18:37.466Z,10.13
2023-04-02T00:19:36.938Z,10.13
2023-04-02T00:20:37.064Z,10.13
2023-04-02T00:21:38.892Z,10.13
2023-04-02T00:22:37.640Z,10.11
2023-04-02T00:23:37.026Z,10.11
2023-04-02T00:24:36.578Z,10.11
2023-04-02T00:25:37.458Z,10.09
2023-04-02T00:26:37.292Z,10.09
2023-04-02T00:27:37.035Z,10.11
2023-04-02T00:28:36.920Z,10.10
2023-04-02T00:29:36.967Z,10.10
2023-04-02T00:30:37.858Z,10.09
2023-04-02T00:31:37.695Z,10.09
2023-04-02T00:32:37.647Z,10.08
2023-04-02T00:33:37.254Z,10.06
2023-04-02T00:34:36.872Z,10.05
2023-04-02T00:35:37.571Z,10.02
2023-04-02T00:36:36.877Z,10.02
2023-04-02T00:37:37.436Z,10.03
2023-04-02T00:38:37.040Z,10.03
2023-04-02T00:39:36.893Z,10.00
2023-04-02T00:40:37.704Z,10.00
2023-04-02T00:41:37.145Z,9.988
2023-04-02T00:42:37.193Z,9.991
2023-04-02T00:43:37.225Z,9.991
2023-04-02T00:44:36.838Z,9.973
2023-04-02T00:45:37.641Z,9.976
2023-04-02T00:46:37.216Z,9.981
2023-04-02T00:47:37.107Z,9.986
2023-04-02T00:48:36.445Z,9.971
2023-04-02T00:49:37.046Z,9.970
2023-04-02T00:50:36.674Z,9.966
2023-04-02T00:51:37.369Z,9.933
2023-04-02T00:52:37.208Z,9.926
2023-04-02T00:53:37.004Z,9.908
2023-04-02T00:54:36.759Z,9.923
2023-04-02T00:55:38.011Z,9.920
2023-04-02T00:56:37.070Z,9.923
2023-04-02T00:57:37.047Z,9.890
2023-04-02T00:58:37.142Z,9.896
2023-04-02T00:59:37.091Z,9.891
2023-04-02T01:00:38.393Z,9.891
2023-04-02T01:01:37.104Z,9.896
2023-04-02T01:02:37.135Z,9.891
2023-04-02T01:03:38.037Z,9.891
2023-04-02T01:04:37.253Z,9.871
2023-04-02T01:05:37.483Z,9.866
2023-04-02T01:06:37.343Z,9.851
2023-04-02T01:07:37.050Z,9.828
2023-04-02T01:08:44.916Z,9.838
2023-04-02T01:09:37.554Z,9.824
2023-04-02T01:10:42.939Z,9.821
2023-04-02T01:11:37.569Z,9.838
2023-04-02T01:12:37.375Z,9.823
2023-04-02T01:13:36.632Z,9.821
2023-04-02T01:14:37.155Z,9.823
2023-04-02T01:15:37.951Z,9.835
2023-04-02T01:16:37.370Z,9.816
2023-04-02T01:17:37.540Z,9.811
2023-04-02T01:18:36.668Z,9.821
2023-04-02T01:19:37.109Z,9.800
2023-04-02T01:20:37.358Z,9.773
2023-04-02T01:21:37.244Z,9.756
2023-04-02T01:22:36.693Z,9.748
2023-04-02T01:23:37.282Z,9.748
2023-04-02T01:24:36.450Z,9.729
2023-04-02T01:25:37.474Z,9.725
2023-04-02T01:26:36.863Z,9.726
2023-04-02T01:27:37.326Z,9.739
2023-04-02T01:28:36.556Z,9.739
2023-04-02T01:29:36.838Z,9.744
2023-04-02T01:30:51.614Z,9.739
2023-04-02T01:31:37.189Z,9.746
2023-04-02T01:32:36.816Z,9.723
2023-04-02T01:33:36.817Z,9.734
2023-04-02T01:34:39.451Z,9.725
2023-04-02T01:35:37.282Z,9.744
2023-04-02T01:36:36.839Z,9.767
2023-04-02T01:37:37.176Z,9.762
2023-04-02T01:38:37.005Z,9.760
2023-04-02T01:39:36.419Z,9.736
2023-04-02T01:40:37.032Z,9.737
2023-04-02T01:41:36.744Z,9.739
2023-04-02T01:42:37.320Z,9.751
2023-04-02T01:43:37.077Z,9.746
2023-04-02T01:44:36.775Z,9.742
2023-04-02T01:45:37.588Z,9.734
2023-04-02T01:46:36.937Z,9.727
2023-04-02T01:47:37.287Z,9.741
2023-04-02T01:48:36.721Z,9.738
2023-04-02T01:49:37.123Z,9.751
2023-04-02T01:50:36.879Z,9.770
2023-04-02T01:51:38.233Z,9.789
2023-04-02T01:52:37.927Z,9.808
2023-04-02T01:53:37.488Z,9.814
2023-04-02T01:54:36.954Z,9.810
2023-04-02T01:55:37.734Z,9.805
2023-04-02T01:56:37.362Z,9.829
2023-04-02T01:57:37.105Z,9.829
2023-04-02T01:58:36.538Z,9.828
2023-04-02T01:59:36.924Z,9.841
2023-04-02T02:00:37.686Z,9.850
2023-04-02T02:01:37.227Z,9.846
2023-04-02T02:02:37.024Z,9.851
2023-04-02T02:03:36.715Z,9.851
2023-04-02T02:04:37.286Z,9.846
2023-04-02T02:05:37.443Z,9.840
2023-04-02T02:06:37.525Z,9.838
2023-04-02T02:07:37.756Z,9.828
2023-04-02T02:08:38.284Z,9.828
2023-04-02T02:09:38.030Z,9.829
2023-04-02T02:10:37.311Z,9.814
2023-04-02T02:11:37.654Z,9.814
2023-04-02T02:12:37.799Z,9.803
2023-04-02T02:13:38.308Z,9.805
2023-04-02T02:15:09.001Z,9.795
2023-04-02T02:15:40.076Z,9.806
2023-04-02T02:16:36.381Z,9.789
2023-04-02T02:17:36.934Z,9.791
2023-04-02T02:18:37.172Z,9.784
2023-04-02T02:19:36.585Z,9.768
2023-04-02T02:20:37.098Z,9.746
2023-04-02T02:21:37.231Z,9.75
2023-04-02T02:22:37.488Z,9.768
2023-04-02T02:23:36.830Z,9.743
2023-04-02T02:24:37.006Z,9.753
2023-04-02T02:25:37.220Z,9.718
2023-04-02T02:26:36.512Z,9.728
2023-04-02T02:27:37.343Z,9.713
2023-04-02T02:28:37.368Z,9.701
2023-04-02T02:29:37.042Z,9.706
2023-04-02T02:30:37.406Z,9.693
2023-04-02T02:31:37.019Z,9.676
2023-04-02T02:32:37.502Z,9.670
2023-04-02T02:33:37.635Z,9.653
2023-04-02T02:34:37.432Z,9.654
2023-04-02T02:35:37.269Z,9.656
2023-04-02T02:36:37.322Z,9.659
2023-04-02T02:37:37.009Z,9.668
2023-04-02T02:38:36.798Z,9.658
2023-04-02T02:39:37.020Z,9.626
2023-04-02T02:40:36.904Z,9.606
2023-04-02T02:41:37.511Z,9.593
2023-04-02T02:42:37.300Z,9.590
2023-04-02T02:43:36.976Z,9.586
2023-04-02T02:44:37.088Z,9.603
2023-04-02T02:45:37.288Z,9.596
2023-04-02T02:46:37.022Z,9.583
2023-04-02T02:47:37.203Z,9.595
2023-04-02T02:48:36.528Z,9.609
2023-04-02T02:49:36.898Z,9.609
2023-04-02T02:50:37.584Z,9.606
2023-04-02T02:51:36.997Z,9.551
2023-04-02T02:52:36.942Z,9.545
2023-04-02T02:53:37.413Z,9.538
2023-04-02T02:54:36.724Z,9.526
2023-04-02T02:55:37.914Z,9.531
2023-04-02T02:56:37.057Z,9.520
2023-04-02T02:57:37.353Z,9.518
2023-04-02T02:58:37.172Z,9.496
2023-04-02T02:59:37.074Z,9.486
2023-04-02T03:00:38.644Z,9.466
2023-04-02T03:01:37.807Z,9.454
2023-04-02T03:02:37.966Z,9.457
2023-04-02T03:03:37.248Z,9.449
2023-04-02T03:04:37.332Z,9.442
2023-04-02T03:05:37.213Z,9.428
2023-04-02T03:06:37.124Z,9.439
2023-04-02T03:07:36.941Z,9.447
2023-04-02T03:08:37.521Z,9.437
2023-04-02T03:09:37.327Z,9.409
2023-04-02T03:10:36.935Z,9.407
2023-04-02T03:11:37.369Z,9.397
2023-04-02T03:12:37.778Z,9.371
2023-04-02T03:13:37.368Z,9.359
2023-04-02T03:14:37.040Z,9.365
2023-04-02T03:15:37.605Z,9.357
2023-04-02T03:16:37.653Z,9.363
2023-04-02T03:17:37.601Z,9.368
2023-04-02T03:18:37.383Z,9.377
2023-04-02T03:19:37.063Z,9.376
2023-04-02T03:20:36.866Z,9.368
2023-04-02T03:21:37.770Z,9.354
2023-04-02T03:22:37.255Z,9.328
2023-04-02T03:23:37.087Z,9.350
2023-04-02T03:24:37.188Z,9.350
2023-04-02T03:25:36.884Z,9.336
2023-04-02T03:26:37.206Z,9.316
2023-04-02T03:27:37.020Z,9.313
2023-04-02T03:28:36.569Z,9.278
2023-04-02T03:29:37.222Z,9.279
2023-04-02T03:30:37.281Z,9.278
2023-04-02T03:31:37.380Z,9.256
2023-04-02T03:32:36.936Z,9.255
2023-04-02T03:33:37.604Z,9.258
2023-04-02T03:34:37.576Z,9.271
2023-04-02T03:35:38.299Z,9.266
2023-04-02T03:36:37.159Z,9.274
2023-04-02T03:37:37.207Z,9.261
2023-04-02T03:38:36.944Z,9.244
2023-04-02T03:39:37.459Z,9.234
2023-04-02T03:40:37.173Z,9.226
2023-04-02T03:41:36.804Z,9.220
2023-04-02T03:42:36.809Z,9.221
2023-04-02T03:43:37.079Z,9.204
2023-04-02T03:44:36.215Z,9.193
2023-04-02T03:45:37.911Z,9.180
2023-04-02T03:46:38.327Z,9.154
2023-04-02T03:47:37.461Z,9.171
2023-04-02T03:48:36.787Z,9.161
2023-04-02T03:49:37.399Z,9.154
2023-04-02T03:50:37.014Z,9.161
2023-04-02T03:51:36.991Z,9.159
2023-04-02T03:52:36.967Z,9.170
2023-04-02T03:53:36.948Z,9.161
2023-04-02T03:54:37.989Z,9.156
2023-04-02T03:55:37.592Z,9.143
2023-04-02T03:56:37.772Z,9.133
2023-04-02T03:57:37.589Z,9.118
2023-04-02T03:58:37.432Z,9.119
2023-04-02T03:59:37.054Z,9.106
2023-04-02T04:00:38.033Z,9.103
2023-04-02T04:01:37.884Z,9.088
2023-04-02T04:02:37.554Z,9.081
2023-04-02T04:03:37.334Z,9.061
2023-04-02T04:04:37.025Z,9.073
2023-04-02T04:05:37.258Z,9.085
2023-04-02T04:06:36.740Z,9.100
2023-04-02T04:07:37.574Z,9.085
2023-04-02T04:08:37.339Z,9.073
2023-04-02T04:09:36.818Z,9.066
2023-04-02T04:10:37.583Z,9.043
2023-04-02T04:11:37.048Z,9.028
2023-04-02T04:12:36.651Z,9.018
2023-04-02T04:13:37.263Z,9.011
2023-04-02T04:14:36.637Z,9.028
2023-04-02T04:15:38.218Z,9.066
2023-04-02T04:16:37.286Z,9.056
2023-04-02T04:17:36.945Z,9.038
2023-04-02T04:18:37.712Z,9.033
2023-04-02T04:19:37.957Z,9.010
2023-04-02T04:20:37.961Z,9.010
2023-04-02T04:21:38.019Z,9.024
2023-04-02T04:22:37.333Z,9.011
2023-04-02T04:23:37.359Z,8.981
2023-04-02T04:24:37.616Z,8.989
2023-04-02T04:25:38.462Z,8.993
2023-04-02T04:26:37.438Z,9.003
2023-04-02T04:27:37.485Z,9.021
2023-04-02T04:28:36.965Z,8.981
2023-04-02T04:29:37.751Z,8.983
2023-04-02T04:30:37.831Z,8.971
2023-04-02T04:31:40.245Z,8.973
2023-04-02T04:32:37.748Z,8.958
2023-04-02T04:33:37.768Z,8.958
2023-04-02T04:34:37.827Z,8.947
2023-04-02T04:35:38.305Z,8.923
2023-04-02T04:36:37.441Z,8.937
2023-04-02T04:37:37.470Z,8.904
2023-04-02T04:38:36.791Z,8.901
2023-04-02T04:39:37.628Z,8.892
2023-04-02T04:40:37.810Z,8.878
2023-04-02T04:41:37.308Z,8.869
2023-04-02T04:42:37.227Z,8.861
2023-04-02T04:43:37.205Z,8.845
2023-04-02T04:44:36.703Z,8.861
2023-04-02T04:45:37.756Z,8.833
2023-04-02T04:46:37.471Z,8.818
2023-04-02T04:47:37.434Z,8.826
2023-04-02T04:48:37.287Z,8.828
2023-04-02T04:49:37.138Z,8.784
2023-04-02T04:50:37.201Z,8.785
2023-04-02T04:51:36.821Z,8.791
2023-04-02T04:52:37.313Z,8.798
2023-04-02T04:53:37.241Z,8.767
2023-04-02T04:54:37.479Z,8.75
2023-04-02T04:55:37.583Z,8.737
2023-04-02T04:56:38.004Z,8.727
2023-04-02T04:57:37.704Z,8.725
2023-04-02T04:58:37.611Z,8.723
2023-04-02T04:59:37.196Z,8.706
2023-04-02T05:00:38.284Z,8.710
2023-04-02T05:01:37.926Z,8.689
2023-04-02T05:02:37.250Z,8.706
2023-04-02T05:03:37.042Z,8.691
2023-04-02T05:04:37.973Z,8.681
2023-04-02T05:05:37.061Z,8.678
2023-04-02T05:06:37.402Z,8.648
2023-04-02T05:07:37.264Z,8.649
2023-04-02T05:08:37.113Z,8.673
2023-04-02T05:09:36.780Z,8.646
2023-04-02T05:10:37.470Z,8.628
2023-04-02T05:11:36.809Z,8.654
2023-04-02T05:12:37.305Z,8.628
2023-04-02T05:13:36.745Z,8.608
2023-04-02T05:14:37.305Z,8.586
2023-04-02T05:15:37.448Z,8.583
2023-04-02T05:16:37.266Z,8.578
2023-04-02T05:17:37.302Z,8.598
2023-04-02T05:18:37.225Z,8.591
2023-04-02T05:19:37.048Z,8.583
2023-04-02T05:20:37.381Z,8.534
2023-04-02T05:21:37.128Z,8.538
2023-04-02T05:22:38.846Z,8.518
2023-04-02T05:23:37.063Z,8.516
2023-04-02T05:24:36.731Z,8.511
2023-04-02T05:25:37.629Z,8.524
2023-04-02T05:26:37.737Z,8.536
2023-04-02T05:27:37.082Z,8.506
2023-04-02T05:28:37.024Z,8.515
2023-04-02T05:29:36.781Z,8.489
2023-04-02T05:30:37.533Z,8.470
2023-04-02T05:31:37.099Z,8.439
2023-04-02T05:32:37.115Z,8.443
2023-04-02T05:33:37.149Z,8.451
2023-04-02T05:34:37.072Z,8.461
2023-04-02T05:35:37.319Z,8.423
2023-04-02T05:36:37.515Z,8.409
2023-04-02T05:37:37.476Z,8.423
2023-04-02T05:38:37.425Z,8.390
2023-04-02T05:39:37.186Z,8.393
2023-04-02T05:40:37.437Z,8.366
2023-04-02T05:41:37.016Z,8.361
2023-04-02T05:42:36.989Z,8.366
2023-04-02T05:43:36.506Z,8.373
2023-04-02T05:44:39.144Z,8.369
2023-04-02T05:45:38.017Z,8.375
2023-04-02T05:46:36.876Z,8.326
2023-04-02T05:47:37.546Z,8.305
2023-04-02T05:48:37.404Z,8.278
2023-04-02T05:49:37.109Z,8.276
2023-04-02T05:50:37.175Z,8.303
2023-04-02T05:51:37.073Z,8.311
2023-04-02T05:52:37.611Z,8.270
2023-04-02T05:53:37.243Z,8.274
2023-04-02T05:54:37.007Z,8.276
2023-04-02T05:55:37.283Z,8.268
2023-04-02T05:56:36.949Z,8.241
2023-04-02T05:58:17.543Z,8.239
2023-04-02T05:58:51.302Z,8.231
2023-04-02T05:59:37.853Z,8.223
2023-04-02T06:00:38.873Z,8.211
2023-04-02T06:01:37.462Z,8.25
2023-04-02T06:02:45.679Z,8.231
2023-04-02T06:03:37.662Z,8.218
2023-04-02T06:04:37.250Z,8.215
2023-04-02T06:05:37.531Z,8.168
2023-04-02T06:06:45.147Z,8.157
2023-04-02T06:07:37.578Z,8.142
2023-04-02T06:08:37.859Z,8.130
2023-04-02T06:09:38.232Z,8.114
2023-04-02T06:10:39.763Z,8.114
2023-04-02T06:11:37.374Z,8.107
2023-04-02T06:12:37.727Z,8.101
2023-04-02T06:13:37.206Z,8.102
2023-04-02T06:14:37.045Z,8.092
2023-04-02T06:15:37.881Z,8.081
2023-04-02T06:16:37.723Z,8.085
2023-04-02T06:17:37.794Z,8.060
2023-04-02T06:18:51.729Z,8.075
2023-04-02T06:19:37.501Z,8.071
2023-04-02T06:20:37.446Z,8.055
2023-04-02T06:21:37.370Z,8.073
2023-04-02T06:22:38.044Z,8.046
2023-04-02T06:23:37.332Z,8.036
2023-04-02T06:24:42.630Z,8.039
2023-04-02T06:25:37.319Z,8.055
2023-04-02T06:26:37.332Z,8.068
2023-04-02T06:27:37.145Z,8.043
2023-04-02T06:28:37.169Z,8.054
2023-04-02T06:29:36.768Z,8.038
2023-04-02T06:30:43.061Z,8.015
2023-04-02T06:31:37.302Z,8.018
2023-04-02T06:32:37.375Z,8.033
2023-04-02T06:33:37.453Z,8.020
2023-04-02T06:34:37.401Z,7.996
2023-04-02T06:35:38.137Z,8.011
2023-04-02T06:36:37.023Z,7.998
2023-04-02T06:37:37.668Z,7.993
2023-04-02T06:38:38.012Z,7.985
2023-04-02T06:39:37.417Z,7.961
2023-04-02T06:40:37.516Z,7.958
2023-04-02T06:41:37.403Z,7.985
2023-04-02T06:42:37.193Z,7.973
2023-04-02T06:43:37.093Z,7.940
2023-04-02T06:44:37.153Z,7.938
2023-04-02T06:45:37.238Z,7.948
2023-04-02T06:46:37.630Z,7.978
2023-04-02T06:47:37.592Z,8.003
2023-04-02T06:48:37.136Z,7.978
2023-04-02T06:49:36.993Z,7.953
2023-04-02T06:50:36.991Z,7.960
2023-04-02T06:51:37.374Z,7.953
2023-04-02T06:52:37.170Z,7.948
2023-04-02T06:53:37.174Z,7.951
2023-04-02T06:54:38.324Z,7.946
2023-04-02T06:55:38.647Z,7.926
2023-04-02T06:56:37.530Z,7.914
2023-04-02T06:57:37.780Z,7.934
2023-04-02T06:58:37.236Z,7.943
2023-04-02T06:59:36.887Z,7.941
2023-04-02T07:00:58.001Z,7.954
2023-04-02T07:01:37.411Z,7.931
2023-04-02T07:02:56.792Z,7.945
2023-04-02T07:03:37.438Z,7.921
2023-04-02T07:04:36.686Z,7.925
2023-04-02T07:05:38.494Z,7.923
2023-04-02T07:06:37.216Z,7.929
2023-04-02T07:07:37.349Z,7.913
2023-04-02T07:08:37.660Z,7.891
2023-04-02T07:09:37.308Z,7.889
2023-04-02T07:10:37.216Z,7.861
2023-04-02T07:11:36.954Z,7.861
2023-04-02T07:12:37.439Z,7.871
2023-04-02T07:13:37.314Z,7.869
2023-04-02T07:14:37.158Z,7.863
2023-04-02T07:15:37.879Z,7.876
2023-04-02T07:16:37.491Z,7.868
2023-04-02T07:17:37.157Z,7.835
2023-04-02T07:18:36.946Z,7.816
2023-04-02T07:19:37.560Z,7.833
2023-04-02T07:20:37.307Z,7.835
2023-04-02T07:21:37.908Z,7.801
2023-04-02T07:22:37.208Z,7.783
2023-04-02T07:23:37.412Z,7.780
2023-04-02T07:24:36.752Z,7.771
2023-04-02T07:25:37.539Z,7.806
2023-04-02T07:26:37.520Z,7.804
2023-04-02T07:27:37.388Z,7.820
2023-04-02T07:29:37.400Z,7.781
2023-04-02T07:30:37.777Z,7.796
2023-04-02T07:31:37.788Z,7.773
2023-04-02T07:32:38.338Z,7.744
2023-04-02T07:33:37.367Z,7.769
2023-04-02T07:34:37.351Z,7.775
2023-04-02T07:35:37.970Z,7.786
2023-04-02T07:36:37.363Z,7.804
2023-04-02T07:37:37.111Z,7.798
2023-04-02T07:38:37.745Z,7.806
2023-04-02T07:39:40.129Z,7.798
2023-04-02T07:40:37.695Z,7.788
2023-04-02T07:41:37.206Z,7.774
2023-04-02T07:42:37.324Z,7.791
2023-04-02T07:43:37.230Z,7.763
2023-04-02T07:44:37.329Z,7.762
2023-04-02T07:45:37.876Z,7.751
2023-04-02T07:46:37.129Z,7.765
2023-04-02T07:47:37.675Z,7.756
2023-04-02T07:48:37.527Z,7.785
2023-04-02T07:49:37.129Z,7.789
2023-04-02T07:50:37.633Z,7.804
2023-04-02T07:51:37.555Z,7.776
2023-04-02T07:52:40.369Z,7.798
2023-04-02T07:53:37.571Z,7.794
2023-04-02T07:54:37.438Z,7.802
2023-04-02T07:55:37.443Z,7.803
2023-04-02T07:56:37.792Z,7.797
2023-04-02T07:57:38.043Z,7.774
2023-04-02T07:58:37.226Z,7.741
2023-04-02T07:59:37.174Z,7.748
2023-04-02T08:00:38.378Z,7.721
2023-04-02T08:01:37.363Z,7.725
2023-04-02T08:02:37.567Z,7.687
2023-04-02T08:03:37.233Z,7.685
2023-04-02T08:04:37.649Z,7.718
2023-04-02T08:05:38.261Z,7.699
2023-04-02T08:06:37.407Z,7.703
2023-04-02T08:07:36.928Z,7.728
2023-04-02T08:08:38.159Z,7.704
2023-04-02T08:09:36.612Z,7.728
2023-04-02T08:10:37.354Z,7.693
2023-04-02T08:11:37.447Z,7.681
2023-04-02T08:12:37.378Z,7.679
2023-04-02T08:13:36.902Z,7.684
2023-04-02T08:14:37.692Z,7.661
2023-04-02T08:15:37.783Z,7.695
2023-04-02T08:16:37.537Z,7.693
2023-04-02T08:17:37.346Z,7.664
2023-04-02T08:18:37.355Z,7.621
2023-04-02T08:19:54.101Z,7.628
2023-04-02T08:20:37.509Z,7.653
2023-04-02T08:21:37.064Z,7.659
2023-04-02T08:22:37.089Z,7.623
2023-04-02T08:23:36.748Z,7.656
2023-04-02T08:24:37.333Z,7.643
2023-04-02T08:25:37.493Z,7.628
2023-04-02T08:26:37.476Z,7.603
2023-04-02T08:27:37.504Z,7.591
2023-04-02T08:28:37.141Z,7.613
2023-04-02T08:29:37.207Z,7.633
2023-04-02T08:30:37.648Z,7.664
2023-04-02T08:31:37.576Z,7.678
2023-04-02T08:32:37.388Z,7.671
2023-04-02T08:33:37.184Z,7.681
2023-04-02T08:34:37.769Z,7.696
2023-04-02T08:35:37.769Z,7.706
2023-04-02T08:36:37.919Z,7.683
2023-04-02T08:37:37.546Z,7.656
2023-04-02T08:38:37.946Z,7.658
2023-04-02T08:39:37.911Z,7.621
2023-04-02T08:40:37.833Z,7.655
2023-04-02T08:41:37.702Z,7.678
2023-04-02T08:42:37.566Z,7.659
2023-04-02T08:43:38.440Z,7.625
2023-04-02T08:44:37.663Z,7.668
2023-04-02T08:45:40.333Z,7.644
2023-04-02T08:46:37.775Z,7.639
2023-04-02T08:47:37.670Z,7.613
2023-04-02T08:48:37.425Z,7.583
2023-04-02T08:49:37.567Z,7.541
2023-04-02T08:50:37.790Z,7.528
2023-04-02T08:51:37.858Z,7.538
2023-04-02T08:52:37.913Z,7.530
2023-04-02T08:53:37.661Z,7.533
2023-04-02T08:54:37.578Z,7.531
2023-04-02T08:55:37.885Z,7.505
2023-04-02T08:56:37.562Z,7.491
2023-04-02T08:57:37.623Z,7.528
2023-04-02T08:58:37.400Z,7.538
2023-04-02T08:59:37.482Z,7.541
2023-04-02T09:00:39.328Z,7.534
2023-04-02T09:01:45.691Z,7.554
2023-04-02T09:02:37.632Z,7.531
2023-04-02T09:03:59.498Z,7.530
2023-04-02T09:04:37.711Z,7.534
2023-04-02T09:05:38.092Z,7.506
2023-04-02T09:06:37.692Z,7.488
2023-04-02T09:07:45.693Z,7.483
2023-04-02T09:08:37.412Z,7.473
2023-04-02T09:09:37.325Z,7.475
2023-04-02T09:10:37.663Z,7.445
2023-04-02T09:11:37.776Z,7.461
2023-04-02T09:12:40.596Z,7.467
2023-04-02T09:13:38.130Z,7.495
2023-04-02T09:14:37.459Z,7.489
2023-04-02T09:16:10.001Z,7.478
2023-04-02T09:16:41.352Z,7.478
2023-04-02T09:17:46.334Z,7.449
2023-04-02T09:18:37.767Z,7.461
2023-04-02T09:19:38.077Z,7.475
2023-04-02T09:20:37.068Z,7.427
2023-04-02T09:21:37.061Z,7.415
2023-04-02T09:22:36.822Z,7.428
2023-04-02T09:23:37.508Z,7.452
2023-04-02T09:24:37.462Z,7.464
2023-04-02T09:25:37.481Z,7.486
2023-04-02T09:26:37.303Z,7.472
2023-04-02T09:27:36.942Z,7.469
2023-04-02T09:28:37.395Z,7.467
2023-04-02T09:29:37.547Z,7.498
2023-04-02T09:30:37.616Z,7.510
2023-04-02T09:31:38.311Z,7.492
2023-04-02T09:32:38.132Z,7.494
2023-04-02T09:33:37.734Z,7.523
2023-04-02T09:34:38.117Z,7.488
2023-04-02T09:35:41.674Z,7.511
2023-04-02T09:36:37.806Z,7.511
2023-04-02T09:37:37.473Z,7.506
2023-04-02T09:38:37.143Z,7.5
2023-04-02T09:39:37.489Z,7.533
2023-04-02T09:40:37.373Z,7.545
2023-04-02T09:41:37.420Z,7.521
2023-04-02T09:42:37.661Z,7.525
2023-04-02T09:43:37.540Z,7.516
2023-04-02T09:44:37.949Z,7.496
2023-04-02T09:45:38.207Z,7.521
2023-04-02T09:46:37.162Z,7.513
2023-04-02T09:47:37.508Z,7.534
2023-04-02T09:48:37.518Z,7.5
2023-04-02T09:49:37.365Z,7.468
2023-04-02T09:50:37.750Z,7.458
2023-04-02T09:51:38.150Z,7.436
2023-04-02T09:52:37.267Z,7.409
2023-04-02T09:53:37.253Z,7.373
2023-04-02T09:54:37.616Z,7.411
2023-04-02T09:55:37.898Z,7.428
2023-04-02T09:56:37.774Z,7.434
2023-04-02T09:58:37.629Z,7.413
2023-04-02T09:59:38.057Z,7.403
2023-04-02T10:00:55.890Z,7.405
2023-04-02T10:01:38.118Z,7.431
2023-04-02T10:02:37.157Z,7.434
2023-04-02T10:03:37.617Z,7.433
2023-04-02T10:04:40.598Z,7.463
2023-04-02T10:05:54.724Z,7.473
2023-04-02T10:06:38.219Z,7.489
2023-04-02T10:07:37.577Z,7.456
2023-04-02T10:08:37.648Z,7.428
2023-04-02T10:09:37.345Z,7.446
2023-04-02T10:10:40.327Z,7.460
2023-04-02T10:11:46.732Z,7.466
2023-04-02T10:12:37.577Z,7.461
2023-04-02T10:13:37.269Z,7.469
2023-04-02T10:14:37.393Z,7.488
2023-04-02T10:15:37.747Z,7.501
2023-04-02T10:16:40.293Z,7.476
2023-04-02T10:17:37.675Z,7.485
2023-04-02T10:18:37.621Z,7.493
2023-04-02T10:19:37.430Z,7.485
2023-04-02T10:20:50.624Z,7.483
2023-04-02T10:21:37.133Z,7.503
2023-04-02T10:22:36.866Z,7.501
2023-04-02T10:23:37.723Z,7.486
2023-04-02T10:24:37.768Z,7.491
2023-04-02T10:25:37.873Z,7.489
2023-04-02T10:26:37.417Z,7.485
2023-04-02T10:28:37.766Z,7.506
2023-04-02T10:29:37.527Z,7.536
2023-04-02T10:30:37.649Z,7.525
2023-04-02T10:31:37.644Z,7.514
2023-04-02T10:32:38.535Z,7.498
2023-04-02T10:33:37.722Z,7.516
2023-04-02T10:34:37.500Z,7.518
2023-04-02T10:35:37.719Z,7.548
2023-04-02T10:36:37.768Z,7.534
2023-04-02T10:37:37.284Z,7.524
2023-04-02T10:38:37.348Z,7.539
2023-04-02T10:39:37.004Z,7.547
2023-04-02T10:40:37.493Z,7.576
2023-04-02T10:41:37.997Z,7.567
2023-04-02T10:42:37.466Z,7.565
2023-04-02T10:43:37.548Z,7.570
2023-04-02T10:44:37.250Z,7.581
2023-04-02T10:45:37.979Z,7.546
2023-04-02T10:46:40.166Z,7.548
2023-04-02T10:47:37.559Z,7.561
2023-04-02T10:48:37.633Z,7.547
2023-04-02T10:49:37.593Z,7.552
2023-04-02T10:50:38.606Z,7.550
2023-04-02T10:51:37.497Z,7.565
2023-04-02T10:52:37.512Z,7.548
2023-04-02T10:53:36.911Z,7.547
2023-04-02T10:54:38.348Z,7.575
2023-04-02T10:55:37.751Z,7.567
2023-04-02T10:56:49.895Z,7.594
2023-04-02T10:57:38.210Z,7.604
2023-04-02T10:58:37.249Z,7.586
2023-04-02T10:59:37.519Z,7.576
2023-04-02T11:00:38.928Z,7.581
2023-04-02T11:01:38.775Z,7.596
2023-04-02T11:02:52.271Z,7.601
2023-04-02T11:03:38.498Z,7.599
2023-04-02T11:04:37.700Z,7.585
2023-04-02T11:05:38.117Z,7.570
2023-04-02T11:06:37.240Z,7.586
2023-04-02T11:07:37.312Z,7.599
2023-04-02T11:08:37.457Z,7.599
2023-04-02T11:09:37.336Z,7.593
2023-04-02T11:10:37.241Z,7.563
2023-04-02T11:11:37.528Z,7.573
2023-04-02T11:12:41.516Z,7.585
2023-04-02T11:13:37.251Z,7.586
2023-04-02T11:14:37.392Z,7.656
2023-04-02T11:15:37.552Z,7.653
2023-04-02T11:16:42.430Z,7.625
2023-04-02T11:17:36.757Z,7.599
2023-04-02T11:18:37.740Z,7.610
2023-04-02T11:19:37.628Z,7.598
2023-04-02T11:20:37.683Z,7.583
2023-04-02T11:21:44.809Z,7.636
2023-04-02T11:22:37.259Z,7.679
2023-04-02T11:23:37.006Z,7.703
2023-04-02T11:24:59.296Z,7.730
2023-04-02T11:25:37.518Z,7.744
2023-04-02T11:26:37.578Z,7.796
2023-04-02T11:27:37.732Z,7.905
2023-04-02T11:28:44.596Z,7.896
2023-04-02T11:29:37.473Z,7.864
2023-04-02T11:30:45.318Z,7.920
2023-04-02T11:31:37.458Z,7.960
2023-04-02T11:32:37.446Z,7.864
2023-04-02T11:33:51.516Z,7.811
2023-04-02T11:34:37.503Z,7.796
2023-04-02T11:35:37.511Z,7.821
2023-04-02T11:36:37.978Z,7.818
2023-04-02T11:37:37.099Z,7.801
2023-04-02T11:38:36.961Z,7.798
2023-04-02T11:39:37.654Z,7.800
2023-04-02T11:40:37.908Z,7.795
2023-04-02T11:41:37.803Z,7.828
2023-04-02T11:42:37.708Z,7.848
2023-04-02T11:43:37.001Z,7.811
2023-04-02T11:44:50.635Z,7.840
2023-04-02T11:45:50.182Z,7.798
2023-04-02T11:46:37.559Z,7.796
2023-04-02T11:47:37.998Z,7.798
2023-04-02T11:48:56.601Z,7.788
2023-04-02T11:49:37.494Z,7.791
2023-04-02T11:50:37.687Z,7.776
2023-04-02T11:51:37.659Z,7.773
2023-04-02T11:52:38.253Z,7.766
2023-04-02T11:53:37.711Z,7.795
2023-04-02T11:54:37.244Z,7.795
2023-04-02T11:55:37.369Z,7.769
2023-04-02T11:56:37.950Z,7.766
2023-04-02T11:57:38.014Z,7.784
2023-04-02T11:58:37.676Z,7.796
2023-04-02T11:59:36.946Z,7.798
2023-04-02T12:01:40.401Z,7.773
2023-04-02T12:01:48.325Z,7.773
2023-04-02T12:02:37.603Z,7.75
2023-04-02T12:03:37.660Z,7.736
2023-04-02T12:05:00.093Z,7.755
2023-04-02T12:05:37.772Z,7.746
2023-04-02T12:06:37.633Z,7.75
2023-04-02T12:07:37.498Z,7.735
2023-04-02T12:09:37.580Z,7.760
2023-04-02T12:10:37.931Z,7.748
2023-04-02T12:11:37.074Z,7.769
2023-04-02T12:12:37.498Z,7.761
2023-04-02T12:13:37.588Z,7.757
2023-04-02T12:14:37.449Z,7.75
2023-04-02T12:15:37.947Z,7.741
2023-04-02T12:16:37.553Z,7.781
2023-04-02T12:17:37.638Z,7.808
2023-04-02T12:18:37.629Z,7.831
2023-04-02T12:19:37.450Z,7.806
2023-04-02T12:20:38.026Z,7.794
2023-04-02T12:21:37.684Z,7.797
2023-04-02T12:22:38.479Z,7.814
2023-04-02T12:23:38.113Z,7.789
2023-04-02T12:24:37.309Z,7.804
2023-04-02T12:25:37.112Z,7.796
2023-04-02T12:26:38.029Z,7.807
2023-04-02T12:27:37.415Z,7.817
2023-04-02T12:28:37.427Z,7.818
2023-04-02T12:29:37.607Z,7.829
2023-04-02T12:30:38.016Z,7.835
2023-04-02T12:31:37.000Z,7.866
2023-04-02T12:32:37.038Z,7.864
2023-04-02T12:33:37.109Z,7.854
2023-04-02T12:34:36.836Z,7.861
2023-04-02T12:35:37.683Z,7.861
2023-04-02T12:36:37.744Z,7.888
2023-04-02T12:37:37.595Z,7.901
2023-04-02T12:38:37.956Z,7.896
2023-04-02T12:39:41.730Z,7.898
2023-04-02T12:40:37.878Z,7.923
2023-04-02T12:41:37.351Z,7.931
2023-04-02T12:42:37.711Z,7.914
2023-04-02T12:43:37.465Z,7.920
2023-04-02T12:44:37.459Z,7.928
2023-04-02T12:45:37.996Z,7.931
2023-04-02T12:46:37.254Z,7.925
2023-04-02T12:47:37.458Z,7.941
2023-04-02T12:48:37.835Z,7.961
2023-04-02T12:49:37.589Z,7.961
2023-04-02T12:50:37.863Z,7.974
2023-04-02T12:51:37.360Z,7.971
2023-04-02T12:52:37.299Z,7.981
2023-04-02T12:53:37.714Z,8.008
2023-04-02T12:54:37.516Z,8.013
2023-04-02T12:55:37.613Z,7.998
2023-04-02T12:56:37.218Z,7.989
2023-04-02T12:57:37.986Z,7.976